createdAt,value
2022-10-18T00:00:17.094Z,15.98
2022-10-18T00:02:56.492Z,16.00
2022-10-18T00:05:36.275Z,15.98
2022-10-18T00:08:16.077Z,15.95
2022-10-18T00:10:57.904Z,15.91
2022-10-18T00:13:37.386Z,15.92
2022-10-18T00:16:17.455Z,15.93
2022-10-18T00:18:56.892Z,15.83
2022-10-18T00:21:38.843Z,15.82
2022-10-18T00:24:18.152Z,15.80
2022-10-18T00:26:58.045Z,15.73
2022-10-18T00:29:39.779Z,15.72
2022-10-18T00:32:22.196Z,15.75
2022-10-18T00:35:02.115Z,15.73
2022-10-18T00:37:41.904Z,15.69
2022-10-18T00:40:23.780Z,15.63
2022-10-18T00:43:05.184Z,15.63
2022-10-18T00:46:07.365Z,15.64
2022-10-18T00:48:48.787Z,15.65
2022-10-18T00:51:28.762Z,15.65
2022-10-18T00:54:08.005Z,15.67
2022-10-18T00:56:47.807Z,15.64
2022-10-18T00:59:29.640Z,15.63
2022-10-18T01:02:11.226Z,15.63
2022-10-18T01:04:50.491Z,15.66
2022-10-18T01:07:36.418Z,15.68
2022-10-18T01:10:25.090Z,15.65
2022-10-18T01:13:31.901Z,15.74
2022-10-18T01:16:13.668Z,15.70
2022-10-18T01:18:54.637Z,15.69
2022-10-18T01:21:37.333Z,15.64
2022-10-18T01:24:32.664Z,15.65
2022-10-18T01:27:20.683Z,15.74
2022-10-18T01:30:08.842Z,15.77
2022-10-18T01:32:49.669Z,15.78
2022-10-18T01:35:31.180Z,15.73
2022-10-18T01:38:11.378Z,15.72
2022-10-18T01:40:50.304Z,15.69
2022-10-18T01:43:29.902Z,15.67
2022-10-18T01:46:09.753Z,15.66
2022-10-18T01:48:49.493Z,15.64
2022-10-18T01:51:30.469Z,15.76
2022-10-18T01:54:11.815Z,15.71
2022-10-18T01:56:53.480Z,15.66
2022-10-18T01:59:36.212Z,15.61
2022-10-18T02:02:18.454Z,15.58
2022-10-18T02:05:00.583Z,15.57
2022-10-18T02:07:40.621Z,15.59
2022-10-18T02:10:24.097Z,15.56
2022-10-18T02:13:03.800Z,15.53
2022-10-18T02:15:44.540Z,15.51
2022-10-18T02:18:24.723Z,15.50
2022-10-18T02:21:04.009Z,15.47
2022-10-18T02:23:44.189Z,15.47
2022-10-18T02:26:22.830Z,15.45
2022-10-18T02:29:01.903Z,15.48
2022-10-18T02:31:44.193Z,15.46
2022-10-18T02:34:24.477Z,15.43
2022-10-18T02:37:05.640Z,15.40
2022-10-18T02:39:45.967Z,15.41
2022-10-18T02:42:24.917Z,15.40
2022-10-18T02:45:04.999Z,15.39
2022-10-18T02:47:44.548Z,15.40
2022-10-18T02:50:24.329Z,15.40
2022-10-18T02:53:23.317Z,15.39
2022-10-18T02:56:03.409Z,15.38
2022-10-18T02:58:44.935Z,15.38
2022-10-18T03:01:26.426Z,15.36
2022-10-18T03:04:05.225Z,15.33
2022-10-18T03:06:43.947Z,15.32
2022-10-18T03:09:23.752Z,15.33
2022-10-18T03:12:02.777Z,15.31
2022-10-18T03:14:43.785Z,15.29
2022-10-18T03:17:25.139Z,15.29
2022-10-18T03:20:07.241Z,15.30
2022-10-18T03:22:45.981Z,15.26
2022-10-18T03:25:25.810Z,15.23
2022-10-18T03:28:08.375Z,15.20
2022-10-18T03:30:47.004Z,15.20
2022-10-18T03:33:38.682Z,15.20
2022-10-18T03:36:18.433Z,15.19
2022-10-18T03:38:58.195Z,15.16
2022-10-18T03:41:38.055Z,15.16
2022-10-18T03:44:34.263Z,15.15
2022-10-18T03:47:16.204Z,15.14
2022-10-18T03:49:57.352Z,15.13
2022-10-18T03:52:37.003Z,15.11
2022-10-18T03:55:17.009Z,15.08
2022-10-18T03:57:56.665Z,15.05
2022-10-18T04:00:36.602Z,15.07
2022-10-18T04:03:16.267Z,15.03
2022-10-18T04:05:56.896Z,15.02
2022-10-18T04:08:35.871Z,15.03
2022-10-18T04:11:16.013Z,15.00
2022-10-18T04:13:55.472Z,14.95
2022-10-18T04:16:48.162Z,14.96
2022-10-18T04:19:27.673Z,14.94
2022-10-18T04:22:07.928Z,14.94
2022-10-18T04:24:48.072Z,14.94
2022-10-18T04:27:27.917Z,14.91
2022-10-18T04:30:08.436Z,14.92
2022-10-18T04:32:49.525Z,14.91
2022-10-18T04:35:28.937Z,14.87
2022-10-18T04:38:09.164Z,14.87
2022-10-18T04:40:47.756Z,14.84
2022-10-18T04:43:26.761Z,14.85
2022-10-18T04:46:06.677Z,14.82
2022-10-18T04:48:46.387Z,14.82
2022-10-18T04:51:26.167Z,14.82
2022-10-18T04:54:06.049Z,14.80
2022-10-18T04:56:47.879Z,14.79
2022-10-18T04:59:27.231Z,14.77
2022-10-18T05:02:07.053Z,14.77
2022-10-18T05:04:48.027Z,14.76
2022-10-18T05:07:27.477Z,14.74
2022-10-18T05:10:09.049Z,14.70
2022-10-18T05:12:47.880Z,14.71
2022-10-18T05:15:27.671Z,14.72
2022-10-18T05:18:19.289Z,14.66
2022-10-18T05:21:01.319Z,14.66
2022-10-18T05:23:40.610Z,14.66
2022-10-18T05:26:20.239Z,14.64
2022-10-18T05:29:02.267Z,14.63
2022-10-18T05:31:41.518Z,14.62
2022-10-18T05:34:21.916Z,14.59
2022-10-18T05:37:02.110Z,14.59
2022-10-18T05:39:42.168Z,14.56
2022-10-18T05:42:22.285Z,14.54
2022-10-18T05:45:02.105Z,14.54
2022-10-18T05:47:43.952Z,14.55
2022-10-18T05:50:23.377Z,14.54
2022-10-18T05:53:12.129Z,14.51
2022-10-18T05:55:52.531Z,14.49
2022-10-18T05:58:34.425Z,14.48
2022-10-18T06:01:13.839Z,14.47
2022-10-18T06:03:53.580Z,14.46
2022-10-18T06:06:35.473Z,14.48
2022-10-18T06:09:14.876Z,14.47
2022-10-18T06:11:55.362Z,14.47
2022-10-18T06:14:34.697Z,14.48
2022-10-18T06:17:14.192Z,14.48
2022-10-18T06:19:54.029Z,14.49
2022-10-18T06:22:33.771Z,14.48
2022-10-18T06:25:13.616Z,14.52
2022-10-18T06:27:53.471Z,14.58
2022-10-18T06:30:35.234Z,14.55
2022-10-18T06:33:14.683Z,14.54
2022-10-18T06:35:57.160Z,14.56
2022-10-18T06:38:47.657Z,14.57
2022-10-18T06:41:27.433Z,14.60
2022-10-18T06:44:13.695Z,14.59
2022-10-18T06:46:53.795Z,14.62
2022-10-18T06:49:33.256Z,14.65
2022-10-18T06:52:12.239Z,14.66
2022-10-18T06:54:52.274Z,14.68
2022-10-18T06:57:31.642Z,14.72
2022-10-18T07:00:13.964Z,14.74
2022-10-18T07:02:53.046Z,14.75
2022-10-18T07:08:11.941Z,14.80
2022-10-18T07:10:54.746Z,14.84
2022-10-18T07:13:34.832Z,14.87
2022-10-18T07:16:18.409Z,14.91
2022-10-18T07:18:57.696Z,14.95
2022-10-18T07:21:37.370Z,14.99
2022-10-18T07:24:17.292Z,15.08
2022-10-18T07:26:56.145Z,15.13
2022-10-18T07:29:38.054Z,15.16
2022-10-18T07:32:18.224Z,15.20
2022-10-18T07:34:58.066Z,15.09
2022-10-18T07:37:37.803Z,15.23
2022-10-18T07:40:17.710Z,15.25
2022-10-18T07:42:57.446Z,15.31
2022-10-18T07:48:21.849Z,15.43
2022-10-18T07:51:03.675Z,15.48
2022-10-18T07:53:45.089Z,15.58
2022-10-18T07:56:25.558Z,15.70
2022-10-18T07:59:06.260Z,15.81
2022-10-18T08:01:45.771Z,15.90
2022-10-18T08:04:58.069Z,16.05
2022-10-18T08:07:38.833Z,16.16
2022-10-18T08:10:17.681Z,16.31
2022-10-18T08:12:59.475Z,16.46
2022-10-18T08:15:38.857Z,16.54
2022-10-18T08:18:20.734Z,16.66
2022-10-18T08:21:01.496Z,16.72
2022-10-18T08:23:42.797Z,16.81
2022-10-18T08:26:23.762Z,16.87
2022-10-18T08:29:23.351Z,16.84
2022-10-18T08:32:22.542Z,16.88
2022-10-18T08:35:14.211Z,16.92
2022-10-18T08:37:53.916Z,17.01
2022-10-18T08:40:34.651Z,17.02
2022-10-18T08:43:20.742Z,17.05
2022-10-18T08:46:01.391Z,17.09
2022-10-18T08:48:43.524Z,17.10
2022-10-18T08:51:23.881Z,17.12
2022-10-18T08:54:08.805Z,17.15
2022-10-18T08:56:57.161Z,17.18
2022-10-18T08:59:39.038Z,17.18
2022-10-18T09:02:20.052Z,17.21
2022-10-18T09:04:58.631Z,17.24
2022-10-18T09:07:57.666Z,17.25
2022-10-18T09:10:40.052Z,17.26
2022-10-18T09:13:24.064Z,17.25
2022-10-18T09:16:03.665Z,17.22
2022-10-18T09:18:49.632Z,17.24
2022-10-18T09:21:30.758Z,17.27
2022-10-18T09:24:12.128Z,17.35
2022-10-18T09:26:56.929Z,17.37
2022-10-18T09:29:45.131Z,17.41
2022-10-18T09:32:28.165Z,17.52
2022-10-18T09:35:14.500Z,17.56
2022-10-18T09:37:56.505Z,17.63
2022-10-18T09:40:37.209Z,17.60
2022-10-18T09:43:30.725Z,17.76
2022-10-18T09:46:12.570Z,17.80
2022-10-18T09:48:52.790Z,17.88
2022-10-18T09:51:35.056Z,17.94
2022-10-18T09:54:23.117Z,17.97
2022-10-18T09:57:05.201Z,18.07
2022-10-18T09:59:46.928Z,18.11
2022-10-18T10:02:28.170Z,18.19
2022-10-18T10:05:07.236Z,18.18
2022-10-18T10:07:49.956Z,18.22
2022-10-18T10:10:30.802Z,18.26
2022-10-18T10:13:16.705Z,18.35
2022-10-18T10:15:57.488Z,18.51
2022-10-18T10:18:37.525Z,18.64
2022-10-18T10:21:16.577Z,18.83
2022-10-18T10:23:56.889Z,19.03
2022-10-18T10:26:37.791Z,19.13
2022-10-18T10:29:44.520Z,19.07
2022-10-18T10:32:24.276Z,19.15
2022-10-18T10:35:03.742Z,19.17
2022-10-18T10:37:43.429Z,19.27
2022-10-18T10:40:27.677Z,19.39
2022-10-18T10:43:33.062Z,19.50
2022-10-18T10:46:18.848Z,19.47
2022-10-18T10:49:21.035Z,19.67
2022-10-18T10:52:15.376Z,19.76
2022-10-18T10:55:06.100Z,19.81
2022-10-18T10:57:58.486Z,20.07
2022-10-18T11:00:38.861Z,20.30
2022-10-18T11:03:29.207Z,20.72
2022-10-18T11:06:10.877Z,21.09
2022-10-18T11:08:52.764Z,21.22
2022-10-18T11:11:31.992Z,21.44
2022-10-18T11:14:26.449Z,21.72
2022-10-18T11:17:09.039Z,22.09
2022-10-18T11:19:56.020Z,22.27
2022-10-18T11:22:37.242Z,22.49
2022-10-18T11:25:17.872Z,22.72
2022-10-18T11:27:57.732Z,22.89
2022-10-18T11:30:41.824Z,23.18
2022-10-18T11:33:33.672Z,23.09
2022-10-18T11:36:25.014Z,23.11
2022-10-18T11:39:06.151Z,23.15
2022-10-18T11:41:47.107Z,23.30
2022-10-18T11:44:27.238Z,23.30
2022-10-18T11:47:21.447Z,23.60
2022-10-18T11:50:03.391Z,23.75
2022-10-18T11:52:45.399Z,23.55
2022-10-18T11:55:32.988Z,23.74
2022-10-18T11:58:23.474Z,23.73
2022-10-18T12:01:06.910Z,24.09
2022-10-18T12:03:54.449Z,24.27
2022-10-18T12:06:35.430Z,24.28
2022-10-18T12:09:18.495Z,24.32
2022-10-18T12:11:59.629Z,24.27
2022-10-18T12:14:39.371Z,24.18
2022-10-18T12:17:41.635Z,24.30
2022-10-18T12:20:24.833Z,24.50
2022-10-18T12:23:04.225Z,24.56
2022-10-18T12:25:44.369Z,24.71
2022-10-18T12:28:31.302Z,24.77
2022-10-18T12:31:14.557Z,24.68
2022-10-18T12:33:55.477Z,24.63
2022-10-18T12:36:40.547Z,24.75
2022-10-18T12:39:32.368Z,24.41
2022-10-18T12:42:26.064Z,24.53
2022-10-18T12:45:06.421Z,24.67
2022-10-18T12:47:44.375Z,24.74
2022-10-18T12:50:29.533Z,24.67
2022-10-18T12:53:17.321Z,24.62
2022-10-18T12:55:57.557Z,24.58
2022-10-18T12:58:38.227Z,24.50
2022-10-18T13:01:19.240Z,24.49
2022-10-18T13:04:00.441Z,24.27
2022-10-18T13:06:53.443Z,24.22
2022-10-18T13:09:35.233Z,24.14
2022-10-18T13:12:47.434Z,24.03
2022-10-18T13:15:38.200Z,23.64
2022-10-18T13:18:19.880Z,23.48
2022-10-18T13:21:01.732Z,23.22
2022-10-18T13:23:47.696Z,23.07
2022-10-18T13:26:31.974Z,23.06
2022-10-18T13:29:17.484Z,22.66
2022-10-18T13:31:57.927Z,22.44
2022-10-18T13:34:39.086Z,22.10
2022-10-18T13:37:23.733Z,21.84
2022-10-18T13:40:16.891Z,21.42
2022-10-18T13:42:59.323Z,21.31
2022-10-18T13:45:54.341Z,21.10
2022-10-18T13:48:50.295Z,20.88
2022-10-18T13:51:38.659Z,20.44
2022-10-18T13:54:30.907Z,20.34
2022-10-18T13:57:13.961Z,20.19
2022-10-18T14:00:00.917Z,19.99
2022-10-18T14:02:51.972Z,19.81
2022-10-18T14:05:38.194Z,19.63
2022-10-18T14:08:18.592Z,19.48
2022-10-18T14:11:02.791Z,19.34
2022-10-18T14:13:44.453Z,19.13
2022-10-18T14:16:28.283Z,19.04
2022-10-18T14:19:14.939Z,18.89
2022-10-18T14:21:56.810Z,18.77
2022-10-18T14:24:38.943Z,18.67
2022-10-18T14:27:20.172Z,18.56
2022-10-18T14:30:10.325Z,18.49
2022-10-18T14:32:50.268Z,18.34
2022-10-18T14:35:33.471Z,18.28
2022-10-18T14:38:14.724Z,18.21
2022-10-18T14:40:57.705Z,18.02
2022-10-18T14:43:39.189Z,17.97
2022-10-18T14:46:23.884Z,17.88
2022-10-18T14:49:05.351Z,17.80
2022-10-18T14:51:45.053Z,17.67
2022-10-18T14:54:29.141Z,17.61
2022-10-18T14:57:15.196Z,17.52
2022-10-18T14:59:58.039Z,17.45
2022-10-18T15:02:39.404Z,17.35
2022-10-18T15:05:20.832Z,17.21
2022-10-18T15:08:01.011Z,17.13
2022-10-18T15:10:40.836Z,16.92
2022-10-18T15:13:20.643Z,16.93
2022-10-18T15:15:59.679Z,16.83
2022-10-18T15:18:39.673Z,16.80
2022-10-18T15:21:30.291Z,16.70
2022-10-18T15:24:20.742Z,16.58
2022-10-18T15:27:02.952Z,16.50
2022-10-18T15:29:43.622Z,16.38
2022-10-18T15:32:26.685Z,16.33
2022-10-18T15:35:13.438Z,16.28
2022-10-18T15:37:53.063Z,16.20
2022-10-18T15:40:35.073Z,16.13
2022-10-18T15:43:31.721Z,16.06
2022-10-18T15:46:24.656Z,15.95
2022-10-18T15:49:25.004Z,15.87
2022-10-18T15:52:24.338Z,15.77
2022-10-18T15:55:04.284Z,15.66
2022-10-18T15:57:43.751Z,15.59
2022-10-18T16:00:23.504Z,15.52
2022-10-18T16:03:18.452Z,15.41
2022-10-18T16:06:04.167Z,15.36
2022-10-18T16:08:48.365Z,15.30
2022-10-18T16:11:27.002Z,15.23
2022-10-18T16:14:09.150Z,15.29
2022-10-18T16:16:48.726Z,15.19
2022-10-18T16:19:28.351Z,15.09
2022-10-18T16:22:10.841Z,14.98
2022-10-18T16:24:52.547Z,14.89
2022-10-18T16:27:32.612Z,14.82
2022-10-18T16:30:15.622Z,14.71
2022-10-18T16:32:59.507Z,14.61
2022-10-18T16:35:40.410Z,14.52
2022-10-18T16:38:26.691Z,14.44
2022-10-18T16:41:11.361Z,14.33
2022-10-18T16:44:04.449Z,14.26
2022-10-18T16:46:43.853Z,14.16
2022-10-18T16:49:24.680Z,14.06
2022-10-18T16:52:26.289Z,13.96
2022-10-18T16:55:06.118Z,13.83
2022-10-18T16:57:45.406Z,13.74
2022-10-18T17:00:25.267Z,13.65
2022-10-18T17:03:07.014Z,13.52
2022-10-18T17:05:48.526Z,13.45
2022-10-18T17:08:41.681Z,13.33
2022-10-18T17:11:21.701Z,13.26
2022-10-18T17:14:12.635Z,13.21
2022-10-18T17:16:55.922Z,13.12
2022-10-18T17:19:37.055Z,13.04
2022-10-18T17:22:16.865Z,12.96
2022-10-18T17:25:18.361Z,12.85
2022-10-18T17:27:57.264Z,12.78
2022-10-18T17:30:39.279Z,12.69
2022-10-18T17:33:24.505Z,12.60
2022-10-18T17:36:07.024Z,12.55
2022-10-18T17:38:48.193Z,12.50
2022-10-18T17:41:29.500Z,12.40
2022-10-18T17:44:08.189Z,12.32
2022-10-18T17:46:47.248Z,12.23
2022-10-18T17:49:47.759Z,12.14
2022-10-18T17:52:29.524Z,12.05
2022-10-18T17:55:09.323Z,11.99
2022-10-18T17:57:48.732Z,11.93
2022-10-18T18:00:30.576Z,11.80
2022-10-18T18:03:09.207Z,11.76
2022-10-18T18:05:48.194Z,11.70
2022-10-18T18:08:27.999Z,11.64
2022-10-18T18:11:07.978Z,11.59
2022-10-18T18:13:47.647Z,11.54
2022-10-18T18:16:28.023Z,11.47
2022-10-18T18:19:10.076Z,11.43
2022-10-18T18:21:53.463Z,11.36
2022-10-18T18:24:33.264Z,11.33
2022-10-18T18:27:15.083Z,11.24
2022-10-18T18:29:54.463Z,11.16
2022-10-18T18:32:36.543Z,11.10
2022-10-18T18:35:15.759Z,11.05
2022-10-18T18:37:55.475Z,10.97
2022-10-18T18:40:37.240Z,10.94
2022-10-18T18:43:23.145Z,10.89
2022-10-18T18:46:03.017Z,10.84
2022-10-18T18:48:57.624Z,10.79
2022-10-18T18:51:39.599Z,10.73
2022-10-18T18:54:21.988Z,10.73
2022-10-18T18:57:05.235Z,10.65
2022-10-18T18:59:44.953Z,10.59
2022-10-18T19:02:24.725Z,10.56
2022-10-18T19:05:04.855Z,10.52
2022-10-18T19:07:46.267Z,10.54
2022-10-18T19:10:24.916Z,10.44
2022-10-18T19:13:03.987Z,10.43
2022-10-18T19:15:42.926Z,10.44
2022-10-18T19:18:23.914Z,10.41
2022-10-18T19:21:06.762Z,10.37
2022-10-18T19:23:47.332Z,10.38
2022-10-18T19:26:32.956Z,10.33
2022-10-18T19:29:13.477Z,10.32
2022-10-18T19:31:52.911Z,10.29
2022-10-18T19:34:34.658Z,10.26
2022-10-18T19:37:16.027Z,10.26
2022-10-18T19:39:58.476Z,10.24
2022-10-18T19:42:38.151Z,10.25
2022-10-18T19:45:17.587Z,10.23
2022-10-18T19:48:17.841Z,10.27
2022-10-18T19:50:57.998Z,10.25
2022-10-18T19:54:20.037Z,10.25
2022-10-18T19:56:59.847Z,10.27
2022-10-18T20:02:24.324Z,10.32
2022-10-18T20:05:04.179Z,10.37
2022-10-18T20:07:45.213Z,10.41
2022-10-18T20:10:25.245Z,10.42
2022-10-18T20:13:05.025Z,10.48
2022-10-18T20:15:44.826Z,10.53
2022-10-18T20:18:24.657Z,10.59
2022-10-18T20:21:06.635Z,10.63
2022-10-18T20:23:45.072Z,10.63
2022-10-18T20:26:25.329Z,10.65
2022-10-18T20:29:04.858Z,10.73
2022-10-18T20:31:45.761Z,10.78
2022-10-18T20:34:26.012Z,10.77
2022-10-18T20:37:04.127Z,10.85
2022-10-18T20:39:43.148Z,10.85
2022-10-18T20:42:24.137Z,10.88
2022-10-18T20:47:48.976Z,10.92
2022-10-18T20:50:28.942Z,11.00
2022-10-18T20:53:10.561Z,10.99
2022-10-18T20:55:49.995Z,11.03
2022-10-18T20:58:31.763Z,11.01
2022-10-18T21:01:11.603Z,11.06
2022-10-18T21:03:51.361Z,11.00
2022-10-18T21:06:33.521Z,11.01
2022-10-18T21:09:14.975Z,11.03
2022-10-18T21:11:56.093Z,11.06
2022-10-18T21:14:35.141Z,11.02
2022-10-18T21:17:14.849Z,11.04
2022-10-18T21:19:55.632Z,11.00
2022-10-18T21:22:34.754Z,11.00
2022-10-18T21:25:15.601Z,10.97
2022-10-18T21:27:57.649Z,10.97
2022-10-18T21:30:37.273Z,10.97
2022-10-18T21:33:32.171Z,10.97
2022-10-18T21:36:10.969Z,10.90
2022-10-18T21:38:51.215Z,10.93
2022-10-18T21:41:31.431Z,10.90
2022-10-18T21:44:11.721Z,10.88
2022-10-18T21:46:50.958Z,10.89
2022-10-18T21:49:35.066Z,10.89
2022-10-18T21:52:14.577Z,10.92
2022-10-18T21:54:53.557Z,10.93
2022-10-18T22:00:22.580Z,10.94
2022-10-18T22:03:12.088Z,10.98
2022-10-18T22:05:58.687Z,10.99
2022-10-18T22:08:38.157Z,11.02
2022-10-18T22:11:18.207Z,11.06
2022-10-18T22:13:57.798Z,11.07
2022-10-18T22:16:37.599Z,11.09
2022-10-18T22:19:18.644Z,11.15
2022-10-18T22:21:58.227Z,11.17
2022-10-18T22:24:37.049Z,11.19
2022-10-18T22:27:16.802Z,11.19
2022-10-18T22:29:56.624Z,11.23
2022-10-18T22:32:38.420Z,11.26
2022-10-18T22:35:19.852Z,11.27
2022-10-18T22:37:59.204Z,11.26
2022-10-18T22:40:39.057Z,11.28
2022-10-18T22:43:20.912Z,11.28
2022-10-18T22:46:03.366Z,11.28
2022-10-18T22:48:43.333Z,11.28
2022-10-18T22:51:23.127Z,11.24
2022-10-18T22:54:02.892Z,11.22
2022-10-18T22:56:43.319Z,11.16
2022-10-18T22:59:21.787Z,11.13
2022-10-18T23:02:02.710Z,11.08
2022-10-18T23:04:42.063Z,11.01
2022-10-18T23:07:21.871Z,10.97
2022-10-18T23:10:03.794Z,10.89
2022-10-18T23:12:43.231Z,10.86
2022-10-18T23:15:22.291Z,10.80
2022-10-18T23:18:02.131Z,10.75
2022-10-18T23:20:40.114Z,10.71
2022-10-18T23:23:20.127Z,10.67
2022-10-18T23:25:59.015Z,10.64
2022-10-18T23:28:38.449Z,10.60
2022-10-18T23:31:19.124Z,10.56
2022-10-18T23:33:59.185Z,10.51
2022-10-18T23:36:38.327Z,10.47
2022-10-18T23:39:18.041Z,10.44
2022-10-18T23:41:57.309Z,10.37
2022-10-18T23:44:38.003Z,10.31
2022-10-18T23:47:17.440Z,10.28
2022-10-18T23:49:59.301Z,10.24
2022-10-18T23:52:37.844Z,10.24
2022-10-18T23:55:16.165Z,10.24
2022-10-18T23:57:55.038Z,10.25
